sensor_id;sensor_type;location;lat;lon;timestamp;temperature;humidity
1049;DHT22;513;51.444;7.196;2022-09-02T00:01:13;14.80;4.30
1049;DHT22;513;51.444;7.196;2022-09-02T00:03:41;14.70;4.50
1049;DHT22;513;51.444;7.196;2022-09-02T00:06:08;14.70;5.30
1049;DHT22;513;51.444;7.196;2022-09-02T00:08:36;14.70;6.30
1049;DHT22;513;51.444;7.196;2022-09-02T00:11:03;14.70;11.00
1049;DHT22;513;51.444;7.196;2022-09-02T00:13:31;14.60;6.20
1049;DHT22;513;51.444;7.196;2022-09-02T00:15:59;14.60;5.90
1049;DHT22;513;51.444;7.196;2022-09-02T00:18:26;14.60;7.10
1049;DHT22;513;51.444;7.196;2022-09-02T00:20:52;14.50;6.70
1049;DHT22;513;51.444;7.196;2022-09-02T00:23:19;14.50;6.80
1049;DHT22;513;51.444;7.196;2022-09-02T00:25:46;14.50;6.60
1049;DHT22;513;51.444;7.196;2022-09-02T00:28:14;14.40;7.80
1049;DHT22;513;51.444;7.196;2022-09-02T00:30:42;14.30;8.50
1049;DHT22;513;51.444;7.196;2022-09-02T00:33:11;14.30;9.20
1049;DHT22;513;51.444;7.196;2022-09-02T00:35:38;14.30;9.60
1049;DHT22;513;51.444;7.196;2022-09-02T00:38:05;14.30;10.30
1049;DHT22;513;51.444;7.196;2022-09-02T00:40:36;14.20;11.10
1049;DHT22;513;51.444;7.196;2022-09-02T00:43:05;14.20;11.80
1049;DHT22;513;51.444;7.196;2022-09-02T00:45:32;14.20;13.50
1049;DHT22;513;51.444;7.196;2022-09-02T00:47:58;14.10;14.00
1049;DHT22;513;51.444;7.196;2022-09-02T00:50:29;14.10;14.90
1049;DHT22;513;51.444;7.196;2022-09-02T00:53:02;14.10;14.70
1049;DHT22;513;51.444;7.196;2022-09-02T00:55:32;14.10;16.70
1049;DHT22;513;51.444;7.196;2022-09-02T00:58:03;14.00;19.60
1049;DHT22;513;51.444;7.196;2022-09-02T01:00:33;14.00;21.10
1049;DHT22;513;51.444;7.196;2022-09-02T01:03:04;14.00;22.30
1049;DHT22;513;51.444;7.196;2022-09-02T01:05:34;14.00;23.30
1049;DHT22;513;51.444;7.196;2022-09-02T01:08:02;13.90;24.80
1049;DHT22;513;51.444;7.196;2022-09-02T01:10:33;13.90;26.90
1049;DHT22;513;51.444;7.196;2022-09-02T01:13:03;13.90;27.80
1049;DHT22;513;51.444;7.196;2022-09-02T01:15:32;13.90;27.50
1049;DHT22;513;51.444;7.196;2022-09-02T01:18:02;13.90;27.80
1049;DHT22;513;51.444;7.196;2022-09-02T01:20:28;13.90;28.50
1049;DHT22;513;51.444;7.196;2022-09-02T01:22:56;13.90;29.70
1049;DHT22;513;51.444;7.196;2022-09-02T01:25:26;13.90;29.60
1049;DHT22;513;51.444;7.196;2022-09-02T01:27:58;13.90;29.20
1049;DHT22;513;51.444;7.196;2022-09-02T01:30:25;13.80;29.00
1049;DHT22;513;51.444;7.196;2022-09-02T01:32:52;13.80;29.40
1049;DHT22;513;51.444;7.196;2022-09-02T01:35:18;13.80;29.80
1049;DHT22;513;51.444;7.196;2022-09-02T01:37:45;13.80;29.50
1049;DHT22;513;51.444;7.196;2022-09-02T01:40:15;13.80;29.90
1049;DHT22;513;51.444;7.196;2022-09-02T01:42:45;13.80;30.60
1049;DHT22;513;51.444;7.196;2022-09-02T01:45:12;13.90;29.70
1049;DHT22;513;51.444;7.196;2022-09-02T01:47:40;13.90;29.40
1049;DHT22;513;51.444;7.196;2022-09-02T01:50:08;13.80;29.60
1049;DHT22;513;51.444;7.196;2022-09-02T01:52:35;13.80;31.30
1049;DHT22;513;51.444;7.196;2022-09-02T01:55:03;13.80;32.90
1049;DHT22;513;51.444;7.196;2022-09-02T01:57:31;13.80;33.50
1049;DHT22;513;51.444;7.196;2022-09-02T01:59:58;13.80;34.50
1049;DHT22;513;51.444;7.196;2022-09-02T02:02:26;13.80;36.70
1049;DHT22;513;51.444;7.196;2022-09-02T02:04:53;13.80;38.70
1049;DHT22;513;51.444;7.196;2022-09-02T02:07:20;13.80;40.80
1049;DHT22;513;51.444;7.196;2022-09-02T02:09:48;13.70;41.40
1049;DHT22;513;51.444;7.196;2022-09-02T02:12:15;13.60;44.00
1049;DHT22;513;51.444;7.196;2022-09-02T02:14:43;13.50;47.40
1049;DHT22;513;51.444;7.196;2022-09-02T02:17:10;13.50;49.60
1049;DHT22;513;51.444;7.196;2022-09-02T02:19:37;13.40;55.50
1049;DHT22;513;51.444;7.196;2022-09-02T02:22:04;13.40;57.80
1049;DHT22;513;51.444;7.196;2022-09-02T02:24:30;13.40;60.50
1049;DHT22;513;51.444;7.196;2022-09-02T02:26:58;13.30;65.90
1049;DHT22;513;51.444;7.196;2022-09-02T02:29:25;13.30;69.90
1049;DHT22;513;51.444;7.196;2022-09-02T02:31:53;13.20;78.90
1049;DHT22;513;51.444;7.196;2022-09-02T02:34:19;13.20;83.00
1049;DHT22;513;51.444;7.196;2022-09-02T02:36:46;13.20;90.00
1049;DHT22;513;51.444;7.196;2022-09-02T02:39:13;13.10;92.40
1049;DHT22;513;51.444;7.196;2022-09-02T02:41:40;13.10;95.60
1049;DHT22;513;51.444;7.196;2022-09-02T02:44:07;13.00;98.00
1049;DHT22;513;51.444;7.196;2022-09-02T02:46:35;13.00;99.90
1049;DHT22;513;51.444;7.196;2022-09-02T02:49:04;13.00;99.90
1049;DHT22;513;51.444;7.196;2022-09-02T02:51:31;13.00;99.90
1049;DHT22;513;51.444;7.196;2022-09-02T02:53:58;13.00;99.90
1049;DHT22;513;51.444;7.196;2022-09-02T02:56:25;13.00;99.90
1049;DHT22;513;51.444;7.196;2022-09-02T02:58:52;13.00;99.90
1049;DHT22;513;51.444;7.196;2022-09-02T03:01:19;12.90;99.90
1049;DHT22;513;51.444;7.196;2022-09-02T03:03:46;13.00;99.90
1049;DHT22;513;51.444;7.196;2022-09-02T03:06:14;12.90;99.90
1049;DHT22;513;51.444;7.196;2022-09-02T03:08:41;12.90;99.90
1049;DHT22;513;51.444;7.196;2022-09-02T03:11:07;12.90;99.90
1049;DHT22;513;51.444;7.196;2022-09-02T03:13:34;12.80;99.90
1049;DHT22;513;51.444;7.196;2022-09-02T03:16:03;12.80;99.90
1049;DHT22;513;51.444;7.196;2022-09-02T03:18:29;12.80;99.90
1049;DHT22;513;51.444;7.196;2022-09-02T03:20:56;12.80;99.90
1049;DHT22;513;51.444;7.196;2022-09-02T03:23:25;12.80;99.90
1049;DHT22;513;51.444;7.196;2022-09-02T03:25:52;12.70;99.90
1049;DHT22;513;51.444;7.196;2022-09-02T03:28:19;12.60;99.90
1049;DHT22;513;51.444;7.196;2022-09-02T03:30:45;12.60;99.90
1049;DHT22;513;51.444;7.196;2022-09-02T03:33:12;12.50;99.90
1049;DHT22;513;51.444;7.196;2022-09-02T03:35:41;12.50;99.90
1049;DHT22;513;51.444;7.196;2022-09-02T03:38:09;12.50;99.90
1049;DHT22;513;51.444;7.196;2022-09-02T03:40:38;12.50;99.90
1049;DHT22;513;51.444;7.196;2022-09-02T03:43:06;12.50;99.90
1049;DHT22;513;51.444;7.196;2022-09-02T03:45:32;12.50;99.90
1049;DHT22;513;51.444;7.196;2022-09-02T03:47:59;12.50;99.90
1049;DHT22;513;51.444;7.196;2022-09-02T03:50:28;12.50;99.90
1049;DHT22;513;51.444;7.196;2022-09-02T03:52:56;12.40;99.90
1049;DHT22;513;51.444;7.196;2022-09-02T03:55:23;12.40;99.90
1049;DHT22;513;51.444;7.196;2022-09-02T03:57:52;12.30;99.90
1049;DHT22;513;51.444;7.196;2022-09-02T04:00:22;12.30;99.90
1049;DHT22;513;51.444;7.196;2022-09-02T04:02:50;12.30;99.90
1049;DHT22;513;51.444;7.196;2022-09-02T04:05:19;12.30;99.90
1049;DHT22;513;51.444;7.196;2022-09-02T04:07:47;12.20;99.90
1049;DHT22;513;51.444;7.196;2022-09-02T04:10:15;12.20;99.90
1049;DHT22;513;51.444;7.196;2022-09-02T04:12:42;12.20;99.90
1049;DHT22;513;51.444;7.196;2022-09-02T04:15:11;12.20;99.90
1049;DHT22;513;51.444;7.196;2022-09-02T04:17:38;12.20;99.90
1049;DHT22;513;51.444;7.196;2022-09-02T04:20:08;12.20;99.90
1049;DHT22;513;51.444;7.196;2022-09-02T04:22:35;12.20;99.90
1049;DHT22;513;51.444;7.196;2022-09-02T04:25:03;12.20;99.90
1049;DHT22;513;51.444;7.196;2022-09-02T04:27:30;12.20;99.90
1049;DHT22;513;51.444;7.196;2022-09-02T04:29:57;12.20;99.90
1049;DHT22;513;51.444;7.196;2022-09-02T04:32:25;12.20;99.90
1049;DHT22;513;51.444;7.196;2022-09-02T04:34:52;12.20;99.90
1049;DHT22;513;51.444;7.196;2022-09-02T04:37:19;12.20;99.90
1049;DHT22;513;51.444;7.196;2022-09-02T04:39:45;12.20;99.90
1049;DHT22;513;51.444;7.196;2022-09-02T04:42:12;12.20;1.00
1049;DHT22;513;51.444;7.196;2022-09-02T04:44:39;12.20;1.00
1049;DHT22;513;51.444;7.196;2022-09-02T04:47:05;12.20;1.00
1049;DHT22;513;51.444;7.196;2022-09-02T04:49:33;12.20;1.00
1049;DHT22;513;51.444;7.196;2022-09-02T04:52:00;12.30;1.00
1049;DHT22;513;51.444;7.196;2022-09-02T04:54:27;12.30;1.00
1049;DHT22;513;51.444;7.196;2022-09-02T04:56:53;12.30;1.00
1049;DHT22;513;51.444;7.196;2022-09-02T04:59:20;12.40;1.00
1049;DHT22;513;51.444;7.196;2022-09-02T05:01:47;12.40;1.00
1049;DHT22;513;51.444;7.196;2022-09-02T05:04:14;12.40;1.00
1049;DHT22;513;51.444;7.196;2022-09-02T05:06:42;12.40;1.00
1049;DHT22;513;51.444;7.196;2022-09-02T05:09:10;12.40;1.00
1049;DHT22;513;51.444;7.196;2022-09-02T05:11:37;12.50;1.00
1049;DHT22;513;51.444;7.196;2022-09-02T05:14:05;12.50;1.00
1049;DHT22;513;51.444;7.196;2022-09-02T05:16:36;12.60;1.00
1049;DHT22;513;51.444;7.196;2022-09-02T05:19:04;12.60;1.00
1049;DHT22;513;51.444;7.196;2022-09-02T05:21:31;12.70;1.00
1049;DHT22;513;51.444;7.196;2022-09-02T05:23:59;12.80;1.00
1049;DHT22;513;51.444;7.196;2022-09-02T05:26:25;12.80;1.00
1049;DHT22;513;51.444;7.196;2022-09-02T05:28:52;12.80;1.00
1049;DHT22;513;51.444;7.196;2022-09-02T05:31:19;12.90;1.00
1049;DHT22;513;51.444;7.196;2022-09-02T05:33:47;13.00;1.00
1049;DHT22;513;51.444;7.196;2022-09-02T05:36:16;13.00;1.00
1049;DHT22;513;51.444;7.196;2022-09-02T05:38:44;13.10;1.00
1049;DHT22;513;51.444;7.196;2022-09-02T05:41:14;13.20;1.00
1049;DHT22;513;51.444;7.196;2022-09-02T05:43:43;13.30;1.00
1049;DHT22;513;51.444;7.196;2022-09-02T05:46:12;13.30;1.00
1049;DHT22;513;51.444;7.196;2022-09-02T05:48:41;13.40;99.90
1049;DHT22;513;51.444;7.196;2022-09-02T05:51:26;13.50;99.90
1049;DHT22;513;51.444;7.196;2022-09-02T05:53:53;13.60;99.90
1049;DHT22;513;51.444;7.196;2022-09-02T05:56:22;13.60;99.90
1049;DHT22;513;51.444;7.196;2022-09-02T05:58:49;13.70;99.90
1049;DHT22;513;51.444;7.196;2022-09-02T06:01:18;13.70;99.90
1049;DHT22;513;51.444;7.196;2022-09-02T06:03:45;13.80;99.90
1049;DHT22;513;51.444;7.196;2022-09-02T06:06:12;13.90;99.90
1049;DHT22;513;51.444;7.196;2022-09-02T06:08:39;13.80;99.90
1049;DHT22;513;51.444;7.196;2022-09-02T06:11:07;13.80;99.90
1049;DHT22;513;51.444;7.196;2022-09-02T06:13:38;13.80;99.90
1049;DHT22;513;51.444;7.196;2022-09-02T06:16:06;13.80;99.90
1049;DHT22;513;51.444;7.196;2022-09-02T06:18:33;13.80;99.90
1049;DHT22;513;51.444;7.196;2022-09-02T06:21:02;13.80;99.90
1049;DHT22;513;51.444;7.196;2022-09-02T06:23:29;13.90;99.90
1049;DHT22;513;51.444;7.196;2022-09-02T06:25:55;13.90;99.90
1049;DHT22;513;51.444;7.196;2022-09-02T06:28:22;14.00;99.90
1049;DHT22;513;51.444;7.196;2022-09-02T06:30:50;14.00;99.90
1049;DHT22;513;51.444;7.196;2022-09-02T06:33:17;14.10;99.90
1049;DHT22;513;51.444;7.196;2022-09-02T06:35:44;14.30;99.90
1049;DHT22;513;51.444;7.196;2022-09-02T06:38:12;14.30;99.90
1049;DHT22;513;51.444;7.196;2022-09-02T06:40:45;14.40;99.90
1049;DHT22;513;51.444;7.196;2022-09-02T06:43:12;14.50;99.90
1049;DHT22;513;51.444;7.196;2022-09-02T06:45:39;14.50;99.90
1049;DHT22;513;51.444;7.196;2022-09-02T06:48:08;14.60;99.90
1049;DHT22;513;51.444;7.196;2022-09-02T06:50:37;14.60;99.90
1049;DHT22;513;51.444;7.196;2022-09-02T06:53:04;14.70;99.90
1049;DHT22;513;51.444;7.196;2022-09-02T06:55:34;14.80;99.90
1049;DHT22;513;51.444;7.196;2022-09-02T06:58:00;14.90;99.90
1049;DHT22;513;51.444;7.196;2022-09-02T07:00:27;15.00;99.90
1049;DHT22;513;51.444;7.196;2022-09-02T07:02:55;15.20;99.90
1049;DHT22;513;51.444;7.196;2022-09-02T07:05:37;15.40;99.90
1049;DHT22;513;51.444;7.196;2022-09-02T07:08:03;15.50;99.90
1049;DHT22;513;51.444;7.196;2022-09-02T07:10:30;15.70;99.90
1049;DHT22;513;51.444;7.196;2022-09-02T07:12:57;15.80;99.90
1049;DHT22;513;51.444;7.196;2022-09-02T07:15:23;16.00;99.90
1049;DHT22;513;51.444;7.196;2022-09-02T07:17:50;16.10;99.90
1049;DHT22;513;51.444;7.196;2022-09-02T07:20:18;16.20;99.90
1049;DHT22;513;51.444;7.196;2022-09-02T07:22:46;16.40;99.90
1049;DHT22;513;51.444;7.196;2022-09-02T07:25:14;16.60;99.90
1049;DHT22;513;51.444;7.196;2022-09-02T07:27:42;16.80;99.90
1049;DHT22;513;51.444;7.196;2022-09-02T07:30:10;16.90;99.90
1049;DHT22;513;51.444;7.196;2022-09-02T07:32:37;17.10;99.90
1049;DHT22;513;51.444;7.196;2022-09-02T07:35:05;17.20;99.90
1049;DHT22;513;51.444;7.196;2022-09-02T07:37:33;17.40;95.80
1049;DHT22;513;51.444;7.196;2022-09-02T07:40:03;17.60;99.90
1049;DHT22;513;51.444;7.196;2022-09-02T07:42:30;17.60;99.90
1049;DHT22;513;51.444;7.196;2022-09-02T07:44:57;17.70;99.90
1049;DHT22;513;51.444;7.196;2022-09-02T07:47:24;17.80;99.90
1049;DHT22;513;51.444;7.196;2022-09-02T07:49:50;17.90;98.90
1049;DHT22;513;51.444;7.196;2022-09-02T07:52:17;18.10;97.50
1049;DHT22;513;51.444;7.196;2022-09-02T07:54:44;18.20;91.90
1049;DHT22;513;51.444;7.196;2022-09-02T07:57:12;18.30;90.60
1049;DHT22;513;51.444;7.196;2022-09-02T07:59:38;18.50;79.80
1049;DHT22;513;51.444;7.196;2022-09-02T08:02:05;18.60;79.80
1049;DHT22;513;51.444;7.196;2022-09-02T08:04:32;18.70;83.50
1049;DHT22;513;51.444;7.196;2022-09-02T08:06:58;18.80;90.30
1049;DHT22;513;51.444;7.196;2022-09-02T08:09:25;18.90;85.90
1049;DHT22;513;51.444;7.196;2022-09-02T08:11:52;19.10;84.40
1049;DHT22;513;51.444;7.196;2022-09-02T08:14:23;19.20;92.60
1049;DHT22;513;51.444;7.196;2022-09-02T08:16:50;19.40;90.60
1049;DHT22;513;51.444;7.196;2022-09-02T08:19:17;19.50;99.90
1049;DHT22;513;51.444;7.196;2022-09-02T08:21:44;19.70;84.40
1049;DHT22;513;51.444;7.196;2022-09-02T08:24:11;19.80;81.00
1049;DHT22;513;51.444;7.196;2022-09-02T08:26:37;20.00;75.50
1049;DHT22;513;51.444;7.196;2022-09-02T08:29:05;20.10;77.40
1049;DHT22;513;51.444;7.196;2022-09-02T08:31:35;20.20;82.10
1049;DHT22;513;51.444;7.196;2022-09-02T08:34:01;20.40;82.20
1049;DHT22;513;51.444;7.196;2022-09-02T08:36:28;20.60;69.80
1049;DHT22;513;51.444;7.196;2022-09-02T08:38:55;20.70;77.00
1049;DHT22;513;51.444;7.196;2022-09-02T08:41:23;20.70;73.50
1049;DHT22;513;51.444;7.196;2022-09-02T08:43:52;20.60;64.10
1049;DHT22;513;51.444;7.196;2022-09-02T08:46:21;20.70;68.40
1049;DHT22;513;51.444;7.196;2022-09-02T08:48:54;20.80;69.30
1049;DHT22;513;51.444;7.196;2022-09-02T08:51:26;20.80;63.60
1049;DHT22;513;51.444;7.196;2022-09-02T08:53:59;21.00;60.70
1049;DHT22;513;51.444;7.196;2022-09-02T08:56:28;21.00;55.90
1049;DHT22;513;51.444;7.196;2022-09-02T08:58:55;21.00;63.10
1049;DHT22;513;51.444;7.196;2022-09-02T09:01:28;21.10;58.90
1049;DHT22;513;51.444;7.196;2022-09-02T09:07:06;21.20;58.60
1049;DHT22;513;51.444;7.196;2022-09-02T09:09:47;21.50;55.90
1049;DHT22;513;51.444;7.196;2022-09-02T09:12:25;21.60;59.30
1049;DHT22;513;51.444;7.196;2022-09-02T09:14:57;21.80;58.40
1049;DHT22;513;51.444;7.196;2022-09-02T09:17:29;21.80;58.50
1049;DHT22;513;51.444;7.196;2022-09-02T09:20:03;21.60;53.60
1049;DHT22;513;51.444;7.196;2022-09-02T09:22:34;21.40;55.30
1049;DHT22;513;51.444;7.196;2022-09-02T09:25:02;21.40;56.30
1049;DHT22;513;51.444;7.196;2022-09-02T09:27:31;21.40;51.90
1049;DHT22;513;51.444;7.196;2022-09-02T09:29:58;21.40;52.90
1049;DHT22;513;51.444;7.196;2022-09-02T09:32:29;21.50;59.10
1049;DHT22;513;51.444;7.196;2022-09-02T09:35:01;21.60;56.90
1049;DHT22;513;51.444;7.196;2022-09-02T09:37:30;21.70;61.90
1049;DHT22;513;51.444;7.196;2022-09-02T09:39:57;21.90;56.40
1049;DHT22;513;51.444;7.196;2022-09-02T09:42:32;22.20;63.00
1049;DHT22;513;51.444;7.196;2022-09-02T09:44:59;22.70;67.30
1049;DHT22;513;51.444;7.196;2022-09-02T09:47:25;23.10;67.20
1049;DHT22;513;51.444;7.196;2022-09-02T09:50:07;23.20;62.20
1049;DHT22;513;51.444;7.196;2022-09-02T09:52:35;23.10;58.80
1049;DHT22;513;51.444;7.196;2022-09-02T09:55:09;22.90;60.50
1049;DHT22;513;51.444;7.196;2022-09-02T09:57:37;22.90;57.20
1049;DHT22;513;51.444;7.196;2022-09-02T10:00:10;22.80;61.80
1049;DHT22;513;51.444;7.196;2022-09-02T10:02:45;22.80;61.60
1049;DHT22;513;51.444;7.196;2022-09-02T10:05:26;22.70;53.10
1049;DHT22;513;51.444;7.196;2022-09-02T10:07:55;22.80;56.20
1049;DHT22;513;51.444;7.196;2022-09-02T10:10:23;22.60;54.10
1049;DHT22;513;51.444;7.196;2022-09-02T10:12:53;22.80;52.20
1049;DHT22;513;51.444;7.196;2022-09-02T10:15:30;22.90;54.10
1049;DHT22;513;51.444;7.196;2022-09-02T10:18:05;23.20;58.70
1049;DHT22;513;51.444;7.196;2022-09-02T10:20:45;23.20;53.60
1049;DHT22;513;51.444;7.196;2022-09-02T10:26:15;23.40;54.40
1049;DHT22;513;51.444;7.196;2022-09-02T10:28:57;23.60;49.80
1049;DHT22;513;51.444;7.196;2022-09-02T10:31:31;23.80;54.80
1049;DHT22;513;51.444;7.196;2022-09-02T10:34:09;24.00;52.50
1049;DHT22;513;51.444;7.196;2022-09-02T10:36:54;24.00;55.50
1049;DHT22;513;51.444;7.196;2022-09-02T10:39:31;24.00;56.40
1049;DHT22;513;51.444;7.196;2022-09-02T10:42:09;24.00;50.30
1049;DHT22;513;51.444;7.196;2022-09-02T10:44:43;23.90;63.90
1049;DHT22;513;51.444;7.196;2022-09-02T10:47:21;23.90;56.50
1049;DHT22;513;51.444;7.196;2022-09-02T10:49:59;23.70;45.80
1049;DHT22;513;51.444;7.196;2022-09-02T10:52:52;23.70;45.10
1049;DHT22;513;51.444;7.196;2022-09-02T10:55:29;23.60;44.80
1049;DHT22;513;51.444;7.196;2022-09-02T10:58:04;23.60;42.00
1049;DHT22;513;51.444;7.196;2022-09-02T11:00:33;23.60;42.80
1049;DHT22;513;51.444;7.196;2022-09-02T11:03:06;23.50;41.60
1049;DHT22;513;51.444;7.196;2022-09-02T11:05:42;23.30;42.60
1049;DHT22;513;51.444;7.196;2022-09-02T11:08:17;23.20;44.80
1049;DHT22;513;51.444;7.196;2022-09-02T11:10:55;23.40;44.20
1049;DHT22;513;51.444;7.196;2022-09-02T11:13:29;23.40;45.60
1049;DHT22;513;51.444;7.196;2022-09-02T11:16:01;23.50;42.80
1049;DHT22;513;51.444;7.196;2022-09-02T11:18:34;23.60;51.60
1049;DHT22;513;51.444;7.196;2022-09-02T11:21:05;23.90;49.80
1049;DHT22;513;51.444;7.196;2022-09-02T11:23:39;24.30;51.10
1049;DHT22;513;51.444;7.196;2022-09-02T11:26:12;24.50;48.00
1049;DHT22;513;51.444;7.196;2022-09-02T11:28:45;24.70;44.70
1049;DHT22;513;51.444;7.196;2022-09-02T11:31:18;24.70;40.00
1049;DHT22;513;51.444;7.196;2022-09-02T11:33:51;24.80;39.50
1049;DHT22;513;51.444;7.196;2022-09-02T11:36:20;24.60;35.00
1049;DHT22;513;51.444;7.196;2022-09-02T11:38:52;24.60;37.50
1049;DHT22;513;51.444;7.196;2022-09-02T11:41:44;24.70;34.70
1049;DHT22;513;51.444;7.196;2022-09-02T11:44:36;24.90;36.90
1049;DHT22;513;51.444;7.196;2022-09-02T11:50:26;25.10;35.50
1049;DHT22;513;51.444;7.196;2022-09-02T11:53:08;25.10;35.80
1049;DHT22;513;51.444;7.196;2022-09-02T11:55:41;25.20;29.10
1049;DHT22;513;51.444;7.196;2022-09-02T11:58:09;24.70;29.00
1049;DHT22;513;51.444;7.196;2022-09-02T12:01:00;24.50;24.00
1049;DHT22;513;51.444;7.196;2022-09-02T12:03:30;24.40;26.40
1049;DHT22;513;51.444;7.196;2022-09-02T12:06:07;24.20;24.70
1049;DHT22;513;51.444;7.196;2022-09-02T12:09:08;23.90;21.10
1049;DHT22;513;51.444;7.196;2022-09-02T12:11:50;24.00;20.00
1049;DHT22;513;51.444;7.196;2022-09-02T12:18:09;23.50;16.90
1049;DHT22;513;51.444;7.196;2022-09-02T12:21:11;23.90;25.00
1049;DHT22;513;51.444;7.196;2022-09-02T12:29:42;24.30;26.40
1049;DHT22;513;51.444;7.196;2022-09-02T12:32:09;24.50;24.00
1049;DHT22;513;51.444;7.196;2022-09-02T12:34:56;24.70;24.10
1049;DHT22;513;51.444;7.196;2022-09-02T12:37:51;24.60;21.60
1049;DHT22;513;51.444;7.196;2022-09-02T12:40:24;24.50;22.40
1049;DHT22;513;51.444;7.196;2022-09-02T12:42:55;24.20;21.90
1049;DHT22;513;51.444;7.196;2022-09-02T12:45:26;23.90;18.20
1049;DHT22;513;51.444;7.196;2022-09-02T12:47:59;23.70;15.00
1049;DHT22;513;51.444;7.196;2022-09-02T12:50:28;23.70;17.10
1049;DHT22;513;51.444;7.196;2022-09-02T12:53:12;23.60;15.30
1049;DHT22;513;51.444;7.196;2022-09-02T12:55:42;23.60;13.40
1049;DHT22;513;51.444;7.196;2022-09-02T12:58:21;23.80;16.50
1049;DHT22;513;51.444;7.196;2022-09-02T13:00:56;24.20;19.90
1049;DHT22;513;51.444;7.196;2022-09-02T13:03:41;24.40;21.40
1049;DHT22;513;51.444;7.196;2022-09-02T13:06:16;24.40;19.90
1049;DHT22;513;51.444;7.196;2022-09-02T13:09:11;24.30;19.10
1049;DHT22;513;51.444;7.196;2022-09-02T13:12:03;24.40;20.50
1049;DHT22;513;51.444;7.196;2022-09-02T13:15:01;24.20;18.10
1049;DHT22;513;51.444;7.196;2022-09-02T13:17:46;24.50;20.70
1049;DHT22;513;51.444;7.196;2022-09-02T13:23:39;24.80;21.80
1049;DHT22;513;51.444;7.196;2022-09-02T13:26:26;24.70;18.20
1049;DHT22;513;51.444;7.196;2022-09-02T13:29:14;24.70;19.10
1049;DHT22;513;51.444;7.196;2022-09-02T13:31:59;24.60;17.30
1049;DHT22;513;51.444;7.196;2022-09-02T13:34:28;24.60;16.40
1049;DHT22;513;51.444;7.196;2022-09-02T13:36:55;24.60;18.20
1049;DHT22;513;51.444;7.196;2022-09-02T13:39:24;24.80;20.00
1049;DHT22;513;51.444;7.196;2022-09-02T13:41:51;24.90;19.30
1049;DHT22;513;51.444;7.196;2022-09-02T13:44:23;24.80;18.90
1049;DHT22;513;51.444;7.196;2022-09-02T13:46:52;24.50;17.60
1049;DHT22;513;51.444;7.196;2022-09-02T13:49:23;24.50;15.10
1049;DHT22;513;51.444;7.196;2022-09-02T13:51:53;24.40;15.50
1049;DHT22;513;51.444;7.196;2022-09-02T13:54:29;24.50;15.20
1049;DHT22;513;51.444;7.196;2022-09-02T13:56:58;24.40;16.40
1049;DHT22;513;51.444;7.196;2022-09-02T13:59:37;24.40;15.10
1049;DHT22;513;51.444;7.196;2022-09-02T14:02:22;24.40;15.90
1049;DHT22;513;51.444;7.196;2022-09-02T14:04:55;24.60;16.60
1049;DHT22;513;51.444;7.196;2022-09-02T14:07:27;24.60;14.10
1049;DHT22;513;51.444;7.196;2022-09-02T14:09:56;24.70;15.70
1049;DHT22;513;51.444;7.196;2022-09-02T14:12:26;24.80;18.10
1049;DHT22;513;51.444;7.196;2022-09-02T14:14:53;24.80;16.30
1049;DHT22;513;51.444;7.196;2022-09-02T14:17:22;24.70;17.40
1049;DHT22;513;51.444;7.196;2022-09-02T14:19:51;24.70;13.80
1049;DHT22;513;51.444;7.196;2022-09-02T14:22:33;24.60;16.90
1049;DHT22;513;51.444;7.196;2022-09-02T14:25:09;24.70;14.00
1049;DHT22;513;51.444;7.196;2022-09-02T14:27:38;24.80;16.50
1049;DHT22;513;51.444;7.196;2022-09-02T14:30:06;24.90;16.60
1049;DHT22;513;51.444;7.196;2022-09-02T14:32:35;25.00;18.50
1049;DHT22;513;51.444;7.196;2022-09-02T14:35:19;25.00;17.10
1049;DHT22;513;51.444;7.196;2022-09-02T14:37:49;24.80;15.10
1049;DHT22;513;51.444;7.196;2022-09-02T14:40:17;24.70;14.70
1049;DHT22;513;51.444;7.196;2022-09-02T14:42:45;24.60;12.70
1049;DHT22;513;51.444;7.196;2022-09-02T14:45:13;24.40;13.40
1049;DHT22;513;51.444;7.196;2022-09-02T14:47:40;24.50;12.90
1049;DHT22;513;51.444;7.196;2022-09-02T14:50:10;24.40;12.70
1049;DHT22;513;51.444;7.196;2022-09-02T14:52:45;24.40;13.50
1049;DHT22;513;51.444;7.196;2022-09-02T14:55:42;24.40;12.30
1049;DHT22;513;51.444;7.196;2022-09-02T14:58:09;24.30;14.20
1049;DHT22;513;51.444;7.196;2022-09-02T15:00:36;24.40;16.60
1049;DHT22;513;51.444;7.196;2022-09-02T15:03:04;24.40;14.70
1049;DHT22;513;51.444;7.196;2022-09-02T15:05:33;24.30;12.60
1049;DHT22;513;51.444;7.196;2022-09-02T15:08:00;24.10;8.70
1049;DHT22;513;51.444;7.196;2022-09-02T15:10:26;24.00;8.50
1049;DHT22;513;51.444;7.196;2022-09-02T15:12:54;24.00;8.00
1049;DHT22;513;51.444;7.196;2022-09-02T15:15:22;23.90;9.40
1049;DHT22;513;51.444;7.196;2022-09-02T15:17:49;23.80;8.80
1049;DHT22;513;51.444;7.196;2022-09-02T15:20:15;23.90;5.90
1049;DHT22;513;51.444;7.196;2022-09-02T15:22:43;24.00;11.00
1049;DHT22;513;51.444;7.196;2022-09-02T15:25:10;24.10;10.00
1049;DHT22;513;51.444;7.196;2022-09-02T15:27:37;24.20;14.30
1049;DHT22;513;51.444;7.196;2022-09-02T15:30:05;24.20;10.70
1049;DHT22;513;51.444;7.196;2022-09-02T15:32:33;24.30;15.70
1049;DHT22;513;51.444;7.196;2022-09-02T15:35:00;24.20;10.20
1049;DHT22;513;51.444;7.196;2022-09-02T15:37:27;24.20;11.10
1049;DHT22;513;51.444;7.196;2022-09-02T15:39:55;24.20;8.20
1049;DHT22;513;51.444;7.196;2022-09-02T15:42:22;24.20;6.50
1049;DHT22;513;51.444;7.196;2022-09-02T15:44:48;24.20;7.50
1049;DHT22;513;51.444;7.196;2022-09-02T15:47:15;24.20;8.30
1049;DHT22;513;51.444;7.196;2022-09-02T15:49:41;24.10;8.90
1049;DHT22;513;51.444;7.196;2022-09-02T15:52:08;24.10;6.60
1049;DHT22;513;51.444;7.196;2022-09-02T15:54:35;24.10;18.30
1049;DHT22;513;51.444;7.196;2022-09-02T15:57:03;24.20;8.00
1049;DHT22;513;51.444;7.196;2022-09-02T15:59:31;24.00;6.10
1049;DHT22;513;51.444;7.196;2022-09-02T16:01:57;23.90;6.20
1049;DHT22;513;51.444;7.196;2022-09-02T16:04:25;24.00;6.90
1049;DHT22;513;51.444;7.196;2022-09-02T16:06:52;24.00;6.20
1049;DHT22;513;51.444;7.196;2022-09-02T16:09:19;24.10;8.10
1049;DHT22;513;51.444;7.196;2022-09-02T16:11:48;24.10;7.50
1049;DHT22;513;51.444;7.196;2022-09-02T16:14:16;24.20;4.40
1049;DHT22;513;51.444;7.196;2022-09-02T16:16:44;24.30;6.60
1049;DHT22;513;51.444;7.196;2022-09-02T16:19:11;24.40;8.20
1049;DHT22;513;51.444;7.196;2022-09-02T16:21:38;24.40;7.90
1049;DHT22;513;51.444;7.196;2022-09-02T16:24:06;24.30;7.80
1049;DHT22;513;51.444;7.196;2022-09-02T16:26:34;24.10;7.40
1049;DHT22;513;51.444;7.196;2022-09-02T16:29:04;24.10;5.60
1049;DHT22;513;51.444;7.196;2022-09-02T16:31:34;23.90;3.50
1049;DHT22;513;51.444;7.196;2022-09-02T16:34:04;23.90;4.50
1049;DHT22;513;51.444;7.196;2022-09-02T16:36:33;23.70;3.10
1049;DHT22;513;51.444;7.196;2022-09-02T16:39:01;23.50;1.00
1049;DHT22;513;51.444;7.196;2022-09-02T16:41:30;23.40;1.00
1049;DHT22;513;51.444;7.196;2022-09-02T16:43:59;23.20;1.00
1049;DHT22;513;51.444;7.196;2022-09-02T16:46:28;23.00;1.00
1049;DHT22;513;51.444;7.196;2022-09-02T16:48:56;22.80;1.00
1049;DHT22;513;51.444;7.196;2022-09-02T16:51:24;22.80;1.00
1049;DHT22;513;51.444;7.196;2022-09-02T16:53:52;22.60;1.00
1049;DHT22;513;51.444;7.196;2022-09-02T16:56:19;22.50;1.00
1049;DHT22;513;51.444;7.196;2022-09-02T16:58:46;22.40;1.00
1049;DHT22;513;51.444;7.196;2022-09-02T17:01:13;22.40;1.00
1049;DHT22;513;51.444;7.196;2022-09-02T17:03:40;22.30;1.00